createdAt,value
2022-12-26T00:02:24.400Z,6.45
2022-12-26T00:07:55.750Z,7.68
2022-12-26T00:13:39.659Z,9.48
2022-12-26T00:19:12.739Z,8.73
2022-12-26T00:24:43.919Z,9.93
2022-12-26T00:30:15.262Z,9.25
2022-12-26T00:35:46.417Z,8.32
2022-12-26T00:41:18.753Z,9.43
2022-12-26T00:46:50.494Z,7.90
2022-12-26T00:52:21.862Z,8.65
2022-12-26T00:57:54.602Z,8.20
2022-12-26T01:03:25.880Z,8.30
2022-12-26T01:08:57.340Z,6.82
2022-12-26T01:14:28.443Z,8.77
2022-12-26T01:19:59.763Z,6.72
2022-12-26T01:25:30.792Z,10.30
2022-12-26T01:31:04.273Z,7.05
2022-12-26T01:36:35.586Z,9.93
2022-12-26T01:42:18.008Z,7.47
2022-12-26T01:48:22.446Z,9.20
2022-12-26T01:53:56.380Z,6.60
2022-12-26T01:59:50.505Z,8.38
2022-12-26T02:05:35.761Z,8.52
2022-12-26T02:11:12.252Z,6.50
2022-12-26T02:16:43.688Z,6.97
2022-12-26T02:22:21.101Z,7.30
2022-12-26T02:28:10.844Z,6.72
2022-12-26T02:34:15.363Z,5.10
2022-12-26T02:39:55.881Z,5.90
2022-12-26T02:45:52.607Z,6.55
2022-12-26T02:51:45.363Z,6.10
2022-12-26T02:57:44.572Z,6.18
2022-12-26T03:03:38.035Z,7.38
2022-12-26T03:09:43.624Z,6.88
2022-12-26T03:15:18.837Z,6.30
2022-12-26T03:20:50.378Z,5.72
2022-12-26T03:26:41.360Z,7.25
2022-12-26T03:32:13.507Z,6.00
2022-12-26T03:38:06.464Z,6.18
2022-12-26T03:44:16.532Z,7.75
2022-12-26T03:50:10.592Z,5.47
2022-12-26T03:56:16.072Z,5.45
2022-12-26T04:02:06.736Z,5.93
2022-12-26T04:08:01.837Z,6.43
2022-12-26T04:19:43.962Z,5.93
2022-12-26T04:25:50.538Z,5.68
2022-12-26T04:31:54.747Z,7.22
2022-12-26T04:37:44.911Z,6.53
2022-12-26T04:43:48.492Z,6.75
2022-12-26T04:49:41.516Z,7.47
2022-12-26T04:55:12.999Z,5.32
2022-12-26T05:00:44.916Z,4.57
2022-12-26T05:06:36.434Z,6.97
2022-12-26T05:12:09.477Z,4.68
2022-12-26T05:17:59.394Z,7.20
2022-12-26T05:23:49.775Z,4.93
2022-12-26T05:29:21.172Z,4.95
2022-12-26T05:34:52.564Z,5.15
2022-12-26T05:40:23.883Z,4.57
2022-12-26T05:45:55.643Z,5.07
2022-12-26T05:51:27.592Z,4.07
2022-12-26T05:56:59.821Z,5.63
2022-12-26T06:02:31.083Z,4.88
2022-12-26T06:08:03.479Z,7.35
2022-12-26T06:13:34.892Z,4.70
2022-12-26T06:19:06.144Z,4.32
2022-12-26T06:24:37.456Z,4.18
2022-12-26T06:30:09.226Z,4.75
2022-12-26T06:35:40.588Z,3.70
2022-12-26T06:41:14.709Z,4.82
2022-12-26T06:46:46.912Z,3.80
2022-12-26T06:52:18.480Z,4.15
2022-12-26T06:57:52.596Z,7.10
2022-12-26T07:03:26.053Z,4.30
2022-12-26T07:09:02.835Z,4.45
2022-12-26T07:14:33.983Z,4.43
2022-12-26T07:20:08.617Z,3.70
2022-12-26T07:25:40.220Z,5.87
2022-12-26T07:31:19.989Z,3.88
2022-12-26T07:36:51.424Z,3.90
2022-12-26T07:42:22.587Z,3.50
2022-12-26T07:47:55.198Z,3.75
2022-12-26T07:53:26.750Z,3.22
2022-12-26T07:58:57.949Z,3.25
2022-12-26T08:04:29.013Z,3.95
2022-12-26T08:10:00.051Z,4.05
2022-12-26T08:15:32.582Z,4.28
2022-12-26T08:21:03.902Z,3.30
2022-12-26T08:26:35.099Z,4.32
2022-12-26T08:32:06.428Z,3.15
2022-12-26T08:37:37.366Z,4.05
2022-12-26T08:49:00.671Z,4.03
2022-12-26T08:54:32.119Z,4.38
2022-12-26T09:00:05.003Z,3.35
2022-12-26T09:05:36.000Z,3.78
2022-12-26T09:11:13.117Z,3.10
2022-12-26T09:16:50.432Z,5.20
2022-12-26T09:22:43.005Z,4.30
2022-12-26T09:28:14.173Z,5.65
2022-12-26T09:33:47.394Z,4.78
2022-12-26T09:39:18.485Z,5.33
2022-12-26T09:45:19.821Z,5.90
2022-12-26T09:50:51.982Z,3.95
2022-12-26T10:02:19.914Z,4.13
2022-12-26T10:08:12.861Z,4.30
2022-12-26T10:14:03.527Z,3.53
2022-12-26T10:20:01.626Z,4.32
2022-12-26T10:25:43.610Z,3.50
2022-12-26T10:31:35.810Z,4.18
2022-12-26T10:37:30.948Z,3.28
2022-12-26T10:43:16.483Z,3.63
2022-12-26T10:48:48.541Z,3.47
2022-12-26T10:54:20.393Z,4.38
2022-12-26T10:59:53.085Z,5.13
2022-12-26T11:05:48.841Z,3.78
2022-12-26T11:11:48.291Z,3.47
2022-12-26T11:17:28.970Z,4.78
2022-12-26T11:23:27.215Z,3.08
2022-12-26T11:29:21.181Z,4.15
2022-12-26T11:34:52.632Z,4.70
2022-12-26T11:40:27.655Z,3.55
2022-12-26T11:45:59.109Z,3.03
2022-12-26T11:51:43.807Z,3.55
2022-12-26T11:57:22.391Z,3.10
2022-12-26T12:02:53.884Z,3.80
2022-12-26T12:08:27.750Z,3.97
2022-12-26T12:25:12.368Z,4.07
2022-12-26T12:31:02.013Z,3.17
2022-12-26T12:37:14.317Z,2.55
2022-12-26T12:43:02.864Z,3.38
2022-12-26T12:48:49.457Z,3.58
2022-12-26T12:54:50.023Z,3.47
2022-12-26T13:00:23.760Z,2.67
2022-12-26T13:06:18.949Z,2.80
2022-12-26T13:12:02.800Z,2.78
2022-12-26T13:17:57.406Z,3.43
2022-12-26T13:29:42.749Z,4.15
2022-12-26T13:35:51.036Z,2.97
2022-12-26T13:41:41.521Z,2.92
2022-12-26T13:47:32.565Z,2.45
2022-12-26T13:53:04.468Z,2.47
2022-12-26T13:58:40.321Z,2.85
2022-12-26T14:04:52.144Z,3.17
2022-12-26T14:10:23.272Z,2.40
2022-12-26T14:16:01.047Z,1.92
2022-12-26T14:21:47.299Z,2.42
2022-12-26T14:27:32.240Z,2.10
2022-12-26T14:33:22.048Z,2.63
2022-12-26T14:39:21.398Z,2.42
2022-12-26T14:44:57.716Z,2.03
2022-12-26T14:50:45.708Z,2.55
2022-12-26T14:56:29.811Z,2.00
2022-12-26T15:02:19.304Z,2.38
2022-12-26T15:08:09.995Z,2.35
2022-12-26T15:14:14.978Z,2.50
2022-12-26T15:20:01.837Z,3.20
2022-12-26T15:26:12.103Z,2.08
2022-12-26T15:32:13.870Z,2.17
2022-12-26T15:38:12.995Z,2.22
2022-12-26T15:44:15.050Z,2.50
2022-12-26T15:49:52.230Z,2.60
2022-12-26T15:55:39.653Z,1.90
2022-12-26T16:01:11.614Z,2.13
2022-12-26T16:07:01.604Z,2.65
2022-12-26T16:12:34.605Z,2.25
2022-12-26T16:18:35.569Z,1.88
2022-12-26T16:24:11.971Z,2.40
2022-12-26T16:29:47.369Z,3.25
2022-12-26T16:35:27.446Z,2.40
2022-12-26T16:41:00.697Z,1.45
2022-12-26T16:46:33.382Z,2.63
2022-12-26T16:52:04.782Z,2.00
2022-12-26T16:57:36.895Z,2.17
2022-12-26T17:03:11.398Z,2.17
2022-12-26T17:08:46.858Z,3.10
2022-12-26T17:14:32.243Z,2.58
2022-12-26T17:20:22.085Z,2.10
2022-12-26T17:26:22.311Z,1.85
2022-12-26T17:31:53.796Z,1.88
2022-12-26T17:37:25.603Z,2.38
2022-12-26T17:43:07.188Z,1.85
2022-12-26T17:48:38.389Z,2.08
2022-12-26T17:54:09.479Z,1.60
2022-12-26T17:59:41.186Z,1.55
2022-12-26T18:05:12.555Z,2.50
2022-12-26T18:10:43.744Z,2.15
2022-12-26T18:16:16.428Z,2.28
2022-12-26T18:21:47.826Z,2.22
2022-12-26T18:27:21.743Z,2.42
2022-12-26T18:32:54.217Z,1.98
2022-12-26T18:38:25.110Z,3.00
2022-12-26T18:43:58.163Z,2.28
2022-12-26T18:49:29.909Z,2.17
2022-12-26T18:55:01.183Z,2.80
2022-12-26T19:00:33.441Z,1.88
2022-12-26T19:06:05.167Z,1.50
2022-12-26T19:11:36.514Z,2.22
2022-12-26T19:17:07.513Z,3.33
2022-12-26T19:22:38.955Z,2.22
2022-12-26T19:28:10.270Z,2.10
2022-12-26T19:33:41.479Z,2.17
2022-12-26T19:39:12.645Z,2.10
2022-12-26T19:44:44.809Z,2.08
2022-12-26T19:50:16.038Z,2.22
2022-12-26T19:55:47.355Z,2.95
2022-12-26T20:01:21.824Z,2.83
2022-12-26T20:06:52.943Z,2.78
2022-12-26T20:12:24.164Z,2.08
2022-12-26T20:17:55.565Z,2.33
2022-12-26T20:23:27.257Z,2.40
2022-12-26T20:29:01.994Z,1.90
2022-12-26T20:34:32.971Z,2.50
2022-12-26T20:40:05.963Z,2.22
2022-12-26T20:45:38.254Z,2.30
2022-12-26T20:51:13.396Z,2.28
2022-12-26T20:56:45.641Z,1.92
2022-12-26T21:02:17.387Z,1.80
2022-12-26T21:07:49.062Z,2.33
2022-12-26T21:13:20.204Z,2.97
2022-12-26T21:18:51.661Z,1.90
2022-12-26T21:24:53.089Z,2.20
2022-12-26T21:30:25.749Z,2.15
2022-12-26T21:35:56.958Z,4.55
2022-12-26T21:41:27.972Z,2.28
2022-12-26T21:46:59.397Z,2.33
2022-12-26T21:52:30.719Z,2.58
2022-12-26T21:58:04.148Z,2.08
2022-12-26T22:09:25.801Z,2.78
2022-12-26T22:14:57.144Z,1.85
2022-12-26T22:20:28.369Z,1.75
2022-12-26T22:25:59.722Z,2.28
2022-12-26T22:31:36.897Z,2.90
2022-12-26T22:37:07.962Z,1.80
2022-12-26T22:42:39.186Z,1.90
2022-12-26T22:48:10.386Z,1.55
2022-12-26T22:53:42.701Z,2.35
2022-12-26T22:59:33.872Z,2.63
2022-12-26T23:05:09.314Z,1.80
2022-12-26T23:10:42.316Z,1.75
2022-12-26T23:16:22.856Z,1.65
2022-12-26T23:21:54.239Z,1.20
2022-12-26T23:27:44.225Z,2.10
2022-12-26T23:33:15.604Z,1.45
2022-12-26T23:38:46.914Z,1.00
2022-12-26T23:44:18.346Z,1.02
2022-12-26T23:49:49.321Z,1.15
2022-12-26T23:55:20.470Z,1.15
